createdAt,value
2019-02-15T00:00:10.842Z,63.10
2019-02-15T00:02:39.242Z,63.90
2019-02-15T00:05:07.734Z,64.20
2019-02-15T00:07:36.141Z,64.10
2019-02-15T00:10:05.530Z,64.60
2019-02-15T00:12:34.274Z,65.00
2019-02-15T00:15:02.689Z,64.70
2019-02-15T00:17:35.973Z,64.30
2019-02-15T00:20:10.472Z,64.30
2019-02-15T00:22:38.897Z,64.60
2019-02-15T00:25:07.344Z,65.00
2019-02-15T00:27:35.749Z,65.10
2019-02-15T00:30:08.654Z,64.90
2019-02-15T00:32:37.056Z,65.10
2019-02-15T00:35:05.645Z,64.80
2019-02-15T00:37:34.046Z,64.60
2019-02-15T00:40:02.525Z,64.10
2019-02-15T00:42:30.939Z,64.10
2019-02-15T00:44:59.398Z,63.60
2019-02-15T00:47:41.103Z,63.30
2019-02-15T00:50:26.545Z,63.60
2019-02-15T00:53:14.443Z,63.90
2019-02-15T00:56:00.981Z,64.00
2019-02-15T00:58:33.474Z,64.30
2019-02-15T01:01:20.207Z,64.50
2019-02-15T01:03:56.233Z,64.80
2019-02-15T01:06:32.253Z,64.60
2019-02-15T01:09:08.254Z,64.90
2019-02-15T01:11:38.307Z,64.70
2019-02-15T01:14:06.715Z,65.40
2019-02-15T01:16:35.198Z,65.70
2019-02-15T01:19:03.733Z,66.10
2019-02-15T01:21:32.161Z,66.30
2019-02-15T01:24:00.562Z,65.90
2019-02-15T01:26:33.581Z,65.40
2019-02-15T01:29:09.329Z,65.40
2019-02-15T01:31:42.325Z,65.80
2019-02-15T01:34:15.091Z,65.60
2019-02-15T01:36:47.970Z,66.00
2019-02-15T01:39:20.961Z,65.90
2019-02-15T01:41:59.701Z,65.80
2019-02-15T01:44:29.743Z,65.70
2019-02-15T01:46:59.790Z,65.80
2019-02-15T01:49:28.198Z,65.30
2019-02-15T01:51:56.599Z,65.10
2019-02-15T01:54:24.994Z,65.30
2019-02-15T01:56:53.427Z,65.20
2019-02-15T01:59:21.854Z,64.90
2019-02-15T02:01:50.279Z,64.60
2019-02-15T02:04:18.714Z,64.50
2019-02-15T02:06:47.145Z,64.20
2019-02-15T02:09:15.629Z,64.00
2019-02-15T02:11:44.082Z,64.20
2019-02-15T02:14:12.566Z,64.50
2019-02-15T02:16:40.978Z,64.60
2019-02-15T02:19:09.397Z,64.70
2019-02-15T02:21:37.808Z,64.20
2019-02-15T02:24:06.257Z,64.40
2019-02-15T02:26:34.662Z,64.30
2019-02-15T02:29:03.109Z,64.30
2019-02-15T02:31:32.089Z,64.40
2019-02-15T02:34:00.537Z,65.00
2019-02-15T02:36:49.731Z,65.00
2019-02-15T02:39:18.135Z,64.40
2019-02-15T02:41:46.565Z,65.60
2019-02-15T02:44:15.007Z,65.90
2019-02-15T02:46:43.431Z,65.90
2019-02-15T02:49:11.860Z,66.10
2019-02-15T02:51:40.271Z,65.20
2019-02-15T02:54:08.690Z,65.00
2019-02-15T02:56:37.101Z,64.40
2019-02-15T02:59:05.530Z,65.10
2019-02-15T03:01:33.924Z,65.60
2019-02-15T03:04:02.814Z,65.70
2019-02-15T03:06:31.221Z,65.80
2019-02-15T03:08:59.631Z,66.10
2019-02-15T03:11:28.051Z,66.00
2019-02-15T03:13:56.456Z,66.10
2019-02-15T03:16:24.862Z,66.30
2019-02-15T03:18:53.545Z,67.80
2019-02-15T03:21:21.959Z,67.10
2019-02-15T03:23:50.383Z,67.10
2019-02-15T03:26:18.782Z,66.80
2019-02-15T03:28:47.574Z,66.80
2019-02-15T03:31:16.042Z,66.60
2019-02-15T03:33:44.910Z,66.20
2019-02-15T03:36:14.977Z,66.50
2019-02-15T03:38:47.788Z,66.60
2019-02-15T03:41:17.829Z,66.40
2019-02-15T03:43:46.359Z,66.30
2019-02-15T03:46:14.741Z,65.90
2019-02-15T03:48:43.185Z,66.00
2019-02-15T03:51:11.902Z,66.40
2019-02-15T03:53:40.319Z,66.80
2019-02-15T03:56:08.725Z,67.20
2019-02-15T03:58:37.141Z,67.30
2019-02-15T04:01:05.558Z,67.90
2019-02-15T04:03:34.039Z,68.10
2019-02-15T04:06:02.447Z,68.00
2019-02-15T04:08:30.878Z,67.80
2019-02-15T04:10:59.290Z,68.60
2019-02-15T04:13:27.701Z,68.10
2019-02-15T04:15:56.438Z,67.80
2019-02-15T04:18:24.862Z,67.50
2019-02-15T04:20:53.683Z,66.90
2019-02-15T04:23:22.082Z,65.90
2019-02-15T04:25:50.583Z,65.10
2019-02-15T04:28:19.053Z,66.10
2019-02-15T04:30:47.470Z,65.70
2019-02-15T04:33:15.902Z,65.60
2019-02-15T04:35:44.307Z,65.40
2019-02-15T04:38:12.759Z,66.50
2019-02-15T04:40:41.208Z,66.40
2019-02-15T04:43:09.640Z,66.80
2019-02-15T04:45:38.100Z,67.00
2019-02-15T04:48:06.526Z,66.90
2019-02-15T04:50:34.959Z,67.00
2019-02-15T04:53:03.368Z,66.30
2019-02-15T04:55:31.806Z,66.30
2019-02-15T04:58:00.205Z,66.70
2019-02-15T05:00:28.645Z,66.80
2019-02-15T05:02:57.048Z,66.70
2019-02-15T05:05:26.993Z,66.40
2019-02-15T05:07:55.479Z,66.80
2019-02-15T05:10:23.991Z,66.70
2019-02-15T05:12:52.783Z,67.80
2019-02-15T05:15:21.200Z,67.90
2019-02-15T05:17:49.605Z,68.00
2019-02-15T05:20:18.061Z,68.10
2019-02-15T05:22:46.479Z,67.60
2019-02-15T05:25:14.901Z,68.00
2019-02-15T05:27:43.314Z,68.00
2019-02-15T05:30:11.728Z,67.80
2019-02-15T05:32:40.137Z,67.50
2019-02-15T05:35:08.553Z,67.00
2019-02-15T05:37:36.996Z,67.00
2019-02-15T05:40:06.517Z,66.70
2019-02-15T05:42:34.953Z,65.50
2019-02-15T05:45:04.578Z,65.50
2019-02-15T05:47:33.298Z,66.40
2019-02-15T05:50:01.741Z,67.00
2019-02-15T05:52:30.158Z,67.50
2019-02-15T05:54:58.593Z,67.90
2019-02-15T05:57:27.019Z,68.20
2019-02-15T05:59:55.417Z,68.70
2019-02-15T06:02:23.864Z,69.50
2019-02-15T06:04:52.265Z,68.60
2019-02-15T06:07:20.809Z,68.30
2019-02-15T06:09:49.257Z,68.10
2019-02-15T06:12:17.683Z,68.70
2019-02-15T06:14:46.090Z,69.00
2019-02-15T06:17:14.525Z,68.90
2019-02-15T06:19:42.955Z,68.30
2019-02-15T06:22:11.371Z,68.00
2019-02-15T06:24:39.851Z,68.30
2019-02-15T06:27:08.295Z,68.60
2019-02-15T06:29:36.725Z,68.60
2019-02-15T06:32:05.137Z,67.90
2019-02-15T06:34:33.893Z,67.00
2019-02-15T06:37:02.358Z,67.20
2019-02-15T06:39:30.757Z,68.00
2019-02-15T06:41:59.208Z,68.40
2019-02-15T06:44:27.617Z,68.20
2019-02-15T06:46:56.062Z,69.10
2019-02-15T06:49:24.462Z,70.30
2019-02-15T06:51:52.939Z,70.30
2019-02-15T06:54:21.360Z,70.10
2019-02-15T06:56:49.769Z,69.60
2019-02-15T06:59:38.110Z,69.00
2019-02-15T07:02:20.219Z,68.50
2019-02-15T07:05:05.366Z,69.20
2019-02-15T07:07:33.788Z,69.30
2019-02-15T07:10:02.189Z,69.40
2019-02-15T07:12:30.594Z,69.20
2019-02-15T07:14:59.265Z,69.10
2019-02-15T07:17:27.685Z,68.00
2019-02-15T07:19:56.109Z,68.10
2019-02-15T07:22:24.514Z,67.90
2019-02-15T07:24:52.953Z,68.00
2019-02-15T07:27:21.386Z,67.90
2019-02-15T07:29:49.834Z,67.90
2019-02-15T07:32:18.257Z,67.80
2019-02-15T07:34:46.691Z,67.70
2019-02-15T07:37:15.101Z,67.90
2019-02-15T07:39:43.549Z,67.00
2019-02-15T07:42:11.968Z,65.70
2019-02-15T07:44:40.368Z,65.40
2019-02-15T07:47:08.793Z,63.90
2019-02-15T07:49:37.203Z,62.10
2019-02-15T07:52:05.609Z,59.90
2019-02-15T07:54:34.047Z,58.10
2019-02-15T07:57:02.521Z,56.50
2019-02-15T07:59:30.916Z,54.10
2019-02-15T08:02:01.829Z,52.30
2019-02-15T08:04:29.461Z,51.30
2019-02-15T08:06:57.865Z,50.50
2019-02-15T08:09:26.276Z,49.60
2019-02-15T08:11:55.022Z,48.10
2019-02-15T08:14:23.460Z,48.30
2019-02-15T08:16:51.870Z,45.30
2019-02-15T08:19:21.230Z,44.40
2019-02-15T08:21:49.961Z,44.40
2019-02-15T08:24:18.382Z,43.90
2019-02-15T08:26:46.801Z,41.80
2019-02-15T08:29:15.246Z,43.40
2019-02-15T08:31:43.711Z,41.10
2019-02-15T08:34:12.145Z,40.80
2019-02-15T08:36:41.924Z,40.70
2019-02-15T08:39:10.402Z,40.10
2019-02-15T08:41:38.816Z,39.80
2019-02-15T08:44:07.279Z,38.90
2019-02-15T08:46:35.799Z,39.00
2019-02-15T08:49:04.245Z,38.70
2019-02-15T08:51:33.064Z,39.60
2019-02-15T08:54:01.546Z,40.40
2019-02-15T08:56:29.974Z,39.90
2019-02-15T08:58:58.479Z,40.40
2019-02-15T09:01:26.907Z,40.50
2019-02-15T09:03:55.386Z,40.50
2019-02-15T09:06:23.839Z,39.30
2019-02-15T09:08:52.522Z,38.90
2019-02-15T09:11:20.924Z,38.80
2019-02-15T09:13:49.341Z,38.40
2019-02-15T09:16:17.746Z,39.20
2019-02-15T09:18:46.193Z,39.70
2019-02-15T09:21:14.590Z,39.70
2019-02-15T09:23:43.043Z,39.70
2019-02-15T09:26:18.023Z,40.90
2019-02-15T09:28:52.798Z,40.90
2019-02-15T09:31:21.193Z,41.20
2019-02-15T09:33:49.629Z,41.20
2019-02-15T09:36:18.049Z,40.40
2019-02-15T09:38:46.464Z,39.70
2019-02-15T09:41:14.867Z,39.80
2019-02-15T09:43:43.287Z,40.70
2019-02-15T09:46:19.524Z,40.90
2019-02-15T09:48:41.853Z,39.10
2019-02-15T09:51:10.303Z,39.30
2019-02-15T09:53:38.717Z,39.40
2019-02-15T09:56:07.119Z,39.60
2019-02-15T09:58:35.805Z,39.90
2019-02-15T10:01:04.221Z,39.70
2019-02-15T10:03:32.620Z,39.50
2019-02-15T10:06:01.033Z,40.00
2019-02-15T10:08:29.441Z,39.50
2019-02-15T10:10:58.029Z,39.30
2019-02-15T10:13:26.488Z,39.70
2019-02-15T10:15:54.930Z,39.10
2019-02-15T10:18:23.353Z,39.40
2019-02-15T10:20:51.772Z,39.60
2019-02-15T10:23:20.203Z,39.10
2019-02-15T10:25:48.922Z,38.90
2019-02-15T10:28:17.358Z,39.10
2019-02-15T10:30:45.878Z,37.90
2019-02-15T10:33:14.661Z,38.00
2019-02-15T10:35:43.091Z,36.50
2019-02-15T10:38:11.504Z,35.80
2019-02-15T10:40:39.929Z,36.70
2019-02-15T10:43:08.351Z,36.70
2019-02-15T10:45:36.779Z,35.70
2019-02-15T10:48:05.262Z,35.30
2019-02-15T10:50:33.687Z,33.90
2019-02-15T10:53:02.137Z,33.60
2019-02-15T10:55:30.554Z,34.20
2019-02-15T10:57:59.276Z,34.30
2019-02-15T11:00:27.841Z,34.50
2019-02-15T11:02:56.246Z,34.50
2019-02-15T11:05:24.665Z,33.60
2019-02-15T11:07:53.168Z,33.50
2019-02-15T11:10:21.601Z,33.50
2019-02-15T11:12:50.017Z,34.00
2019-02-15T11:15:18.777Z,34.30
2019-02-15T11:17:47.212Z,34.30
2019-02-15T11:20:17.161Z,34.00
2019-02-15T11:22:45.634Z,35.70
2019-02-15T11:25:14.058Z,35.30
2019-02-15T11:27:42.486Z,34.90
2019-02-15T11:30:13.722Z,34.30
2019-02-15T11:32:42.433Z,33.80
2019-02-15T11:35:14.324Z,33.90
2019-02-15T11:37:42.827Z,33.10
2019-02-15T11:40:13.872Z,32.50
2019-02-15T11:42:42.352Z,32.60
2019-02-15T11:45:12.674Z,32.10
2019-02-15T11:47:41.626Z,32.20
2019-02-15T11:50:12.173Z,31.80
2019-02-15T11:52:40.621Z,31.20
2019-02-15T11:55:10.366Z,30.80
2019-02-15T11:57:38.797Z,30.80
2019-02-15T12:00:14.765Z,30.40
2019-02-15T12:02:43.399Z,30.20
2019-02-15T12:05:11.864Z,29.70
2019-02-15T12:07:40.277Z,30.00
2019-02-15T12:10:10.801Z,29.20
2019-02-15T12:12:39.245Z,29.00
2019-02-15T12:15:09.401Z,28.80
2019-02-15T12:17:37.925Z,28.40
2019-02-15T12:20:11.312Z,28.00
2019-02-15T12:22:39.728Z,27.70
2019-02-15T12:25:08.981Z,27.60
2019-02-15T12:27:37.400Z,26.90
2019-02-15T12:30:15.539Z,27.10
2019-02-15T12:32:43.973Z,27.00
2019-02-15T12:35:12.401Z,27.30
2019-02-15T12:37:40.867Z,27.40
2019-02-15T12:40:11.033Z,27.60
2019-02-15T12:42:39.449Z,27.40
2019-02-15T12:45:10.876Z,27.10
2019-02-15T12:47:39.303Z,27.60
2019-02-15T12:50:11.030Z,27.50
2019-02-15T12:52:39.428Z,27.30
2019-02-15T12:55:08.127Z,27.30
2019-02-15T12:57:36.550Z,27.60
2019-02-15T13:00:13.237Z,27.40
2019-02-15T13:02:41.650Z,27.40
2019-02-15T13:05:11.321Z,27.60
2019-02-15T13:07:39.765Z,27.30
2019-02-15T13:10:16.831Z,27.60
2019-02-15T13:12:45.269Z,27.80
2019-02-15T13:15:13.953Z,27.60
2019-02-15T13:17:42.531Z,27.60
2019-02-15T13:20:11.535Z,27.70
2019-02-15T13:22:40.015Z,27.80
2019-02-15T13:25:08.893Z,27.50
2019-02-15T13:27:37.393Z,27.80
2019-02-15T13:30:09.119Z,27.40
2019-02-15T13:32:37.560Z,27.50
2019-02-15T13:35:09.265Z,27.20
2019-02-15T13:37:37.712Z,27.20
2019-02-15T13:40:08.137Z,27.50
2019-02-15T13:42:36.558Z,27.20
2019-02-15T13:45:10.561Z,27.60
2019-02-15T13:47:38.992Z,27.80
2019-02-15T13:50:12.201Z,27.80
2019-02-15T13:52:40.625Z,27.60
2019-02-15T13:55:10.576Z,27.70
2019-02-15T13:57:39.077Z,27.50
2019-02-15T14:00:10.738Z,27.40
2019-02-15T14:02:39.151Z,27.50
2019-02-15T14:05:12.005Z,27.70
2019-02-15T14:07:40.425Z,27.90
2019-02-15T14:10:13.110Z,28.10
2019-02-15T14:12:41.525Z,28.10
2019-02-15T14:15:11.193Z,28.20
2019-02-15T14:17:45.292Z,28.30
2019-02-15T14:20:16.241Z,28.10
2019-02-15T14:22:44.654Z,28.10
2019-02-15T14:25:13.633Z,28.40
2019-02-15T14:27:42.110Z,27.90
2019-02-15T14:30:13.721Z,28.10
2019-02-15T14:32:42.200Z,28.20
2019-02-15T14:35:14.168Z,28.50
2019-02-15T14:37:43.417Z,28.00
2019-02-15T14:40:13.237Z,27.50
2019-02-15T14:42:41.685Z,27.70
2019-02-15T14:45:11.466Z,27.30
2019-02-15T14:47:39.946Z,27.40
2019-02-15T14:50:09.738Z,27.20
2019-02-15T14:52:38.225Z,27.20
2019-02-15T14:55:08.921Z,27.20
2019-02-15T14:57:37.383Z,27.10
2019-02-15T15:00:12.111Z,27.20
2019-02-15T15:02:40.760Z,27.20
2019-02-15T15:05:10.466Z,27.10
2019-02-15T15:07:38.888Z,26.80
2019-02-15T15:10:09.069Z,26.40
2019-02-15T15:12:37.481Z,25.40
2019-02-15T15:15:11.833Z,25.60
2019-02-15T15:17:40.269Z,25.10
2019-02-15T15:20:10.737Z,25.30
2019-02-15T15:22:39.155Z,25.40
2019-02-15T15:25:12.477Z,25.30
2019-02-15T15:27:40.954Z,25.60
2019-02-15T15:30:12.325Z,25.70
2019-02-15T15:32:40.906Z,25.90
2019-02-15T15:35:11.183Z,26.10
2019-02-15T15:37:39.598Z,25.70
2019-02-15T15:40:11.083Z,26.10
2019-02-15T15:42:39.530Z,26.10
2019-02-15T15:45:10.203Z,26.20
2019-02-15T15:47:38.668Z,26.40
2019-02-15T15:50:09.323Z,26.50
2019-02-15T15:52:37.765Z,26.60
2019-02-15T15:55:08.219Z,26.80
2019-02-15T15:57:36.638Z,26.80
2019-02-15T16:00:07.809Z,26.80
2019-02-15T16:02:36.236Z,26.70
2019-02-15T16:05:05.925Z,26.80
2019-02-15T16:07:34.633Z,27.10
2019-02-15T16:10:03.774Z,27.20
2019-02-15T16:12:32.531Z,27.80
2019-02-15T16:15:01.089Z,28.30
2019-02-15T16:17:29.551Z,27.40
2019-02-15T16:19:58.346Z,27.70
2019-02-15T16:22:26.756Z,27.80
2019-02-15T16:24:55.181Z,28.00
2019-02-15T16:27:23.605Z,28.30
2019-02-15T16:29:52.018Z,28.50
2019-02-15T16:32:20.448Z,28.70
2019-02-15T16:34:48.877Z,28.80
2019-02-15T16:37:17.288Z,29.00
2019-02-15T16:39:45.726Z,29.20
2019-02-15T16:42:14.703Z,29.40
2019-02-15T16:44:43.294Z,30.20
2019-02-15T16:47:11.730Z,29.90
2019-02-15T16:49:40.146Z,30.00
2019-02-15T16:52:08.594Z,30.30
2019-02-15T16:54:36.996Z,30.50
2019-02-15T16:57:05.442Z,30.80
2019-02-15T16:59:33.900Z,32.10
2019-02-15T17:02:02.679Z,32.50
2019-02-15T17:04:31.113Z,32.50
2019-02-15T17:06:59.525Z,32.80
2019-02-15T17:09:27.961Z,32.90
2019-02-15T17:12:15.710Z,33.20
2019-02-15T17:14:44.128Z,33.20
2019-02-15T17:17:12.558Z,33.40
2019-02-15T17:19:40.957Z,33.60
2019-02-15T17:22:09.371Z,33.80
2019-02-15T17:24:37.769Z,34.00
2019-02-15T17:27:06.176Z,34.30
2019-02-15T17:29:34.635Z,34.30
2019-02-15T17:32:03.038Z,34.80
2019-02-15T17:34:31.484Z,34.80
2019-02-15T17:36:59.930Z,35.10
2019-02-15T17:39:28.341Z,35.20
2019-02-15T17:41:56.756Z,35.60
2019-02-15T17:44:25.156Z,35.60
2019-02-15T17:46:53.580Z,35.90
2019-02-15T17:49:21.986Z,36.10
2019-02-15T17:51:50.413Z,36.50
2019-02-15T17:54:18.853Z,36.60
2019-02-15T17:56:47.271Z,36.90
2019-02-15T17:59:15.697Z,37.00
2019-02-15T18:01:44.110Z,37.20
2019-02-15T18:04:12.541Z,38.10
2019-02-15T18:06:40.996Z,37.50
2019-02-15T18:09:09.434Z,37.70
2019-02-15T18:11:37.875Z,37.90
2019-02-15T18:14:06.278Z,38.20
2019-02-15T18:16:34.795Z,38.50
2019-02-15T18:19:09.844Z,38.70
2019-02-15T18:21:33.669Z,38.90
2019-02-15T18:24:02.370Z,39.10
2019-02-15T18:26:30.791Z,39.10
2019-02-15T18:28:59.230Z,39.20
2019-02-15T18:31:27.680Z,39.20
2019-02-15T18:33:56.154Z,39.50
2019-02-15T18:36:24.629Z,39.50
2019-02-15T18:38:53.039Z,39.60
2019-02-15T18:41:21.449Z,40.00
2019-02-15T18:43:49.880Z,40.10
2019-02-15T18:46:18.327Z,40.10
2019-02-15T18:48:46.756Z,40.30
2019-02-15T18:51:15.149Z,40.20
2019-02-15T18:53:43.575Z,40.70
2019-02-15T18:56:11.983Z,40.80
2019-02-15T18:58:40.402Z,41.10
2019-02-15T19:01:08.833Z,41.20
2019-02-15T19:03:37.253Z,41.20
2019-02-15T19:06:05.653Z,41.30
2019-02-15T19:08:34.123Z,41.70
2019-02-15T19:11:02.540Z,42.00
2019-02-15T19:13:30.950Z,41.90
2019-02-15T19:15:59.664Z,42.50
2019-02-15T19:18:28.107Z,42.70
2019-02-15T19:20:56.557Z,42.90
2019-02-15T19:23:24.981Z,42.90
2019-02-15T19:25:53.713Z,42.80
2019-02-15T19:28:22.125Z,42.70
2019-02-15T19:30:56.606Z,43.00
2019-02-15T19:33:25.045Z,43.20
2019-02-15T19:35:53.470Z,43.30
2019-02-15T19:38:21.891Z,43.30
2019-02-15T19:40:50.301Z,43.50
2019-02-15T19:43:18.728Z,43.20
2019-02-15T19:45:48.318Z,43.40
2019-02-15T19:48:16.824Z,43.50
2019-02-15T19:50:45.233Z,43.50
2019-02-15T19:53:13.653Z,43.60
2019-02-15T19:55:42.070Z,43.70
2019-02-15T19:58:10.486Z,43.80
2019-02-15T20:00:38.890Z,43.70
2019-02-15T20:03:07.305Z,43.90
2019-02-15T20:05:36.069Z,44.50
2019-02-15T20:08:04.490Z,44.40
2019-02-15T20:10:32.887Z,44.60
2019-02-15T20:13:01.310Z,44.60
2019-02-15T20:15:29.767Z,44.90
2019-02-15T20:17:58.169Z,45.20
2019-02-15T20:20:26.583Z,45.40
2019-02-15T20:22:54.989Z,45.50
2019-02-15T20:25:23.436Z,45.50
2019-02-15T20:27:51.917Z,45.60
2019-02-15T20:30:23.813Z,46.00
2019-02-15T20:32:52.262Z,45.90
2019-02-15T20:35:20.777Z,45.90
2019-02-15T20:37:49.203Z,45.60
2019-02-15T20:40:17.671Z,45.70
2019-02-15T20:42:46.077Z,45.60
2019-02-15T20:45:17.422Z,45.80
2019-02-15T20:47:45.902Z,45.90
2019-02-15T20:50:14.864Z,46.00
2019-02-15T20:52:43.598Z,46.20
2019-02-15T20:55:14.361Z,46.20
2019-02-15T20:57:42.840Z,46.40
2019-02-15T21:00:14.322Z,46.60
2019-02-15T21:02:43.046Z,46.70
2019-02-15T21:05:11.572Z,46.90
2019-02-15T21:07:40.019Z,47.40
2019-02-15T21:10:11.234Z,47.60
2019-02-15T21:12:39.858Z,47.50
2019-02-15T21:15:13.871Z,47.80
2019-02-15T21:17:42.341Z,47.90
2019-02-15T21:20:15.234Z,47.90
2019-02-15T21:22:43.665Z,48.00
2019-02-15T21:25:18.238Z,48.30
2019-02-15T21:27:46.659Z,48.20
2019-02-15T21:30:16.721Z,48.90
2019-02-15T21:32:45.200Z,49.70
2019-02-15T21:35:13.697Z,50.50
2019-02-15T21:37:42.118Z,51.90
2019-02-15T21:40:17.921Z,52.70
2019-02-15T21:42:46.327Z,53.00
2019-02-15T21:45:14.824Z,54.00
2019-02-15T21:47:43.254Z,53.90
2019-02-15T21:50:17.127Z,54.10
2019-02-15T21:52:44.313Z,54.50
2019-02-15T21:55:14.048Z,54.70
2019-02-15T21:57:42.441Z,55.10
2019-02-15T22:00:13.666Z,55.70
2019-02-15T22:02:42.086Z,55.50
2019-02-15T22:05:10.859Z,55.60
2019-02-15T22:07:39.276Z,55.90
2019-02-15T22:10:09.563Z,57.40
2019-02-15T22:12:38.355Z,57.00
2019-02-15T22:15:10.177Z,57.00
2019-02-15T22:17:38.595Z,57.30
2019-02-15T22:20:10.562Z,58.10
2019-02-15T22:22:38.989Z,58.10
2019-02-15T22:25:08.258Z,58.20
2019-02-15T22:27:36.663Z,58.00
2019-02-15T22:30:10.934Z,57.80
2019-02-15T22:32:39.343Z,57.50
2019-02-15T22:35:08.653Z,57.60
2019-02-15T22:37:56.992Z,57.40
2019-02-15T22:40:33.061Z,57.00
2019-02-15T22:43:13.489Z,57.50
2019-02-15T22:45:41.919Z,58.00
2019-02-15T22:48:10.419Z,58.70
2019-02-15T22:50:38.892Z,59.20
2019-02-15T22:53:07.332Z,59.10
2019-02-15T22:55:35.765Z,59.50
2019-02-15T22:58:04.710Z,59.80
2019-02-15T23:00:55.813Z,59.80
2019-02-15T23:03:28.065Z,60.50
2019-02-15T23:05:56.482Z,60.00
2019-02-15T23:08:24.985Z,60.20
2019-02-15T23:10:53.409Z,60.50
2019-02-15T23:13:21.841Z,60.80
2019-02-15T23:15:50.261Z,61.10
2019-02-15T23:18:19.171Z,61.10
2019-02-15T23:20:47.653Z,62.50
2019-02-15T23:23:16.330Z,61.90
2019-02-15T23:25:44.733Z,61.50
2019-02-15T23:28:13.152Z,61.80
2019-02-15T23:30:41.567Z,62.10
2019-02-15T23:33:10.006Z,63.10
2019-02-15T23:35:38.436Z,63.50
2019-02-15T23:38:06.874Z,63.50
2019-02-15T23:40:35.266Z,63.40
2019-02-15T23:43:03.952Z,63.20
2019-02-15T23:45:32.367Z,63.40
2019-02-15T23:48:00.777Z,63.40
2019-02-15T23:50:29.207Z,63.40
2019-02-15T23:52:57.690Z,63.40
2019-02-15T23:55:26.117Z,63.40
2019-02-15T23:57:54.582Z,63.50
